createdAt,value
2018-04-29T00:00:40.666Z,13.40
2018-04-29T00:03:09.051Z,13.40
2018-04-29T00:05:37.606Z,13.30
2018-04-29T00:08:06.011Z,13.20
2018-04-29T00:10:34.386Z,13.10
2018-04-29T00:13:02.786Z,13.00
2018-04-29T00:15:31.922Z,13.00
2018-04-29T00:18:00.321Z,12.90
2018-04-29T00:20:28.696Z,12.90
2018-04-29T00:22:57.261Z,12.70
2018-04-29T00:25:25.645Z,12.70
2018-04-29T00:27:54.034Z,12.60
2018-04-29T00:30:22.449Z,12.50
2018-04-29T00:32:50.821Z,12.40
2018-04-29T00:35:20.013Z,12.40
2018-04-29T00:37:48.392Z,12.30
2018-04-29T00:40:17.153Z,12.40
2018-04-29T00:42:45.532Z,12.40
2018-04-29T00:45:13.910Z,12.30
2018-04-29T00:47:42.307Z,12.30
2018-04-29T00:50:10.696Z,12.40
2018-04-29T00:52:39.092Z,12.40
2018-04-29T00:55:08.255Z,12.40
2018-04-29T00:57:36.659Z,12.40
2018-04-29T01:00:05.799Z,12.40
2018-04-29T01:02:34.324Z,12.30
2018-04-29T01:05:02.701Z,12.30
2018-04-29T01:07:31.069Z,12.30
2018-04-29T01:09:59.466Z,12.30
2018-04-29T01:12:27.841Z,12.20
2018-04-29T01:14:56.231Z,12.10
2018-04-29T01:17:24.604Z,12.00
2018-04-29T01:19:53.340Z,11.90
2018-04-29T01:22:21.708Z,11.90
2018-04-29T01:24:50.085Z,11.90
2018-04-29T01:27:18.480Z,11.80
2018-04-29T01:29:46.857Z,11.80
2018-04-29T01:32:15.248Z,11.80
2018-04-29T01:34:43.630Z,11.80
2018-04-29T01:37:12.298Z,11.60
2018-04-29T01:39:40.676Z,11.50
2018-04-29T01:42:09.044Z,11.40
2018-04-29T01:44:37.440Z,11.30
2018-04-29T01:47:05.812Z,11.30
2018-04-29T01:49:34.208Z,11.30
2018-04-29T01:52:02.590Z,11.20
2018-04-29T01:54:31.157Z,11.10
2018-04-29T01:56:59.530Z,11.10
2018-04-29T01:59:27.910Z,11.00
2018-04-29T02:01:56.305Z,10.90
2018-04-29T02:04:24.680Z,10.90
2018-04-29T02:06:53.068Z,10.90
2018-04-29T02:09:21.467Z,10.90
2018-04-29T02:11:50.619Z,10.90
2018-04-29T02:14:19.020Z,10.90
2018-04-29T02:16:47.416Z,10.90
2018-04-29T02:19:15.912Z,10.90
2018-04-29T02:21:45.045Z,11.10
2018-04-29T02:24:13.478Z,11.10
2018-04-29T02:26:41.855Z,11.10
2018-04-29T02:29:10.231Z,11.10
2018-04-29T02:31:38.628Z,11.20
2018-04-29T02:34:08.120Z,11.20
2018-04-29T02:36:36.517Z,11.20
2018-04-29T02:39:05.668Z,11.20
2018-04-29T02:41:34.100Z,11.20
2018-04-29T02:44:03.240Z,11.30
2018-04-29T02:46:31.617Z,11.30
2018-04-29T02:49:00.021Z,11.30
2018-04-29T02:51:28.388Z,11.40
2018-04-29T02:53:56.799Z,11.40
2018-04-29T02:56:25.949Z,11.50
2018-04-29T02:58:54.524Z,11.50
2018-04-29T03:01:22.911Z,11.50
2018-04-29T03:03:51.286Z,11.50
2018-04-29T03:06:19.681Z,11.50
2018-04-29T03:08:48.056Z,11.50
2018-04-29T03:11:16.464Z,11.50
2018-04-29T03:13:45.607Z,11.50
2018-04-29T03:16:14.190Z,11.50
2018-04-29T03:18:42.560Z,11.50
2018-04-29T03:21:10.936Z,11.50
2018-04-29T03:23:39.439Z,11.50
2018-04-29T03:26:07.968Z,11.50
2018-04-29T03:28:37.136Z,11.40
2018-04-29T03:31:05.512Z,11.40
2018-04-29T03:33:34.169Z,11.50
2018-04-29T03:36:02.557Z,11.50
2018-04-29T03:38:30.949Z,11.50
2018-04-29T03:40:59.348Z,11.50
2018-04-29T03:43:27.744Z,11.50
2018-04-29T03:45:56.904Z,11.40
2018-04-29T03:48:25.277Z,11.40
2018-04-29T03:50:53.845Z,11.40
2018-04-29T03:53:22.216Z,11.40
2018-04-29T03:55:50.586Z,11.40
2018-04-29T03:58:36.877Z,11.30
2018-04-29T04:01:23.168Z,11.30
2018-04-29T04:04:01.345Z,11.30
2018-04-29T04:06:29.723Z,11.30
2018-04-29T04:08:58.128Z,11.30
2018-04-29T04:11:27.270Z,11.20
2018-04-29T04:13:55.841Z,11.20
2018-04-29T04:16:24.221Z,11.20
2018-04-29T04:18:52.598Z,11.20
2018-04-29T04:21:20.996Z,11.20
2018-04-29T04:23:49.432Z,11.20
2018-04-29T04:26:17.800Z,11.20
2018-04-29T04:28:46.936Z,11.20
2018-04-29T04:31:15.714Z,11.20
2018-04-29T04:33:44.089Z,11.30
2018-04-29T04:36:12.464Z,11.30
2018-04-29T04:38:40.862Z,11.40
2018-04-29T04:41:09.245Z,11.40
2018-04-29T04:43:37.640Z,11.50
2018-04-29T04:46:06.017Z,11.60
2018-04-29T04:48:34.561Z,11.60
2018-04-29T04:51:02.939Z,11.70
2018-04-29T04:53:31.335Z,11.70
2018-04-29T04:55:59.745Z,11.70
2018-04-29T04:58:28.122Z,11.80
2018-04-29T05:00:56.521Z,11.80
2018-04-29T05:03:25.658Z,11.90
2018-04-29T05:05:54.238Z,11.90
2018-04-29T05:08:22.605Z,11.80
2018-04-29T05:10:50.984Z,11.80
2018-04-29T05:13:19.378Z,11.80
2018-04-29T05:15:47.771Z,11.90
2018-04-29T05:18:16.170Z,12.00
2018-04-29T05:20:44.565Z,12.10
2018-04-29T05:23:13.853Z,12.20
2018-04-29T05:25:42.230Z,12.20
2018-04-29T05:28:10.610Z,12.30
2018-04-29T05:30:39.001Z,12.40
2018-04-29T05:33:08.143Z,12.60
2018-04-29T05:35:36.541Z,12.60
2018-04-29T05:38:04.917Z,12.70
2018-04-29T05:40:33.469Z,12.80
2018-04-29T05:43:01.846Z,12.90
2018-04-29T05:45:30.221Z,13.00
2018-04-29T05:47:58.624Z,12.90
2018-04-29T05:50:27.007Z,13.00
2018-04-29T05:52:55.414Z,13.00
2018-04-29T05:55:23.860Z,13.20
2018-04-29T05:57:52.450Z,13.30
2018-04-29T06:00:20.851Z,13.30
2018-04-29T06:02:49.230Z,13.40
2018-04-29T06:05:17.636Z,13.40
2018-04-29T06:07:46.773Z,13.60
2018-04-29T06:10:15.169Z,13.60
2018-04-29T06:12:43.536Z,13.70
2018-04-29T06:15:12.114Z,13.80
2018-04-29T06:17:40.506Z,13.90
2018-04-29T06:20:08.877Z,13.90
2018-04-29T06:22:37.804Z,14.00
2018-04-29T06:25:06.188Z,14.10
2018-04-29T06:27:35.381Z,14.30
2018-04-29T06:30:03.754Z,14.30
2018-04-29T06:32:32.178Z,14.30
2018-04-29T06:35:00.549Z,14.40
2018-04-29T06:37:28.930Z,14.50
2018-04-29T06:39:57.326Z,14.70
2018-04-29T06:42:25.703Z,14.90
2018-04-29T06:44:54.264Z,15.10
2018-04-29T06:47:22.637Z,15.50
2018-04-29T06:49:51.009Z,15.70
2018-04-29T06:52:20.182Z,16.20
2018-04-29T06:54:48.564Z,16.20
2018-04-29T06:57:16.964Z,16.40
2018-04-29T06:59:45.354Z,16.40
2018-04-29T07:02:13.963Z,16.40
2018-04-29T07:04:42.361Z,16.30
2018-04-29T07:07:10.745Z,16.20
2018-04-29T07:09:39.157Z,16.40
2018-04-29T07:12:08.305Z,17.00
2018-04-29T07:14:36.709Z,16.90
2018-04-29T07:17:05.090Z,17.10
2018-04-29T07:19:33.732Z,17.20
2018-04-29T07:22:02.113Z,17.30
2018-04-29T07:24:30.518Z,17.40
2018-04-29T07:26:58.910Z,17.40
2018-04-29T07:29:27.334Z,17.30
2018-04-29T07:31:55.743Z,17.40
2018-04-29T07:34:24.125Z,17.80
2018-04-29T07:36:52.694Z,18.30
2018-04-29T07:39:21.077Z,18.80
2018-04-29T07:41:49.447Z,19.10
2018-04-29T07:44:17.857Z,19.30
2018-04-29T07:46:46.237Z,19.60
2018-04-29T07:49:14.648Z,20.00
2018-04-29T07:51:43.786Z,20.80
2018-04-29T07:54:12.242Z,20.80
2018-04-29T07:56:40.626Z,21.00
2018-04-29T07:59:09.008Z,21.30
2018-04-29T08:01:37.418Z,21.50
2018-04-29T08:04:05.843Z,21.80
2018-04-29T08:06:34.249Z,21.90
2018-04-29T08:09:02.611Z,22.20
2018-04-29T08:11:31.212Z,22.70
2018-04-29T08:13:59.588Z,23.00
2018-04-29T08:16:27.967Z,23.30
2018-04-29T08:18:56.358Z,23.70
2018-04-29T08:21:24.725Z,24.10
2018-04-29T08:23:53.117Z,24.20
2018-04-29T08:26:21.597Z,24.60
2018-04-29T08:28:50.723Z,24.80
2018-04-29T08:31:19.239Z,25.20
2018-04-29T08:33:47.856Z,25.30
2018-04-29T08:36:16.348Z,25.80
2018-04-29T08:38:44.682Z,25.90
2018-04-29T08:41:13.104Z,25.70
2018-04-29T08:43:41.577Z,25.60
2018-04-29T08:46:10.933Z,25.90
2018-04-29T08:48:40.999Z,26.20
2018-04-29T08:51:09.433Z,26.20
2018-04-29T08:53:37.864Z,26.60
2018-04-29T08:56:06.259Z,26.80
2018-04-29T08:58:34.661Z,26.80
2018-04-29T09:01:03.826Z,26.70
2018-04-29T09:03:33.416Z,26.60
2018-04-29T09:06:06.865Z,26.80
2018-04-29T09:08:37.083Z,27.00
2018-04-29T09:11:09.215Z,27.20
2018-04-29T09:13:41.634Z,27.60
2018-04-29T09:16:12.712Z,28.20
2018-04-29T09:18:42.981Z,28.10
2018-04-29T09:21:13.095Z,28.60
2018-04-29T09:23:42.956Z,28.60
2018-04-29T09:26:12.774Z,28.50
2018-04-29T09:28:42.233Z,28.70
2018-04-29T09:31:12.841Z,29.40
2018-04-29T09:33:42.920Z,29.30
2018-04-29T09:36:12.871Z,29.80
2018-04-29T09:38:42.374Z,30.20
2018-04-29T09:41:12.135Z,30.90
2018-04-29T09:43:41.204Z,30.80
2018-04-29T09:46:10.369Z,30.40
2018-04-29T09:48:38.787Z,30.40
2018-04-29T09:51:07.175Z,30.60
2018-04-29T09:53:36.777Z,31.80
2018-04-29T09:56:05.689Z,31.70
2018-04-29T09:58:34.337Z,31.70
2018-04-29T10:01:03.322Z,32.20
2018-04-29T10:03:33.271Z,31.50
2018-04-29T10:06:01.859Z,31.60
2018-04-29T10:08:30.776Z,31.10
2018-04-29T10:10:59.569Z,30.90
2018-04-29T10:13:28.453Z,31.20
2018-04-29T10:15:57.817Z,31.20
2018-04-29T10:18:27.186Z,31.10
2018-04-29T10:20:55.586Z,31.00
2018-04-29T10:23:24.837Z,30.80
2018-04-29T10:25:53.309Z,30.80
2018-04-29T10:28:21.692Z,31.10
2018-04-29T10:30:51.970Z,31.20
2018-04-29T10:33:21.125Z,32.00
2018-04-29T10:35:50.606Z,32.00
2018-04-29T10:38:18.980Z,32.20
2018-04-29T10:40:47.356Z,32.90
2018-04-29T10:43:15.765Z,33.30
2018-04-29T10:45:44.148Z,33.40
2018-04-29T10:48:12.547Z,33.80
2018-04-29T10:50:41.138Z,34.10
2018-04-29T10:53:10.597Z,33.50
2018-04-29T10:55:38.971Z,33.40
2018-04-29T10:58:07.339Z,33.60
2018-04-29T11:00:35.783Z,33.80
2018-04-29T11:03:04.943Z,33.60
2018-04-29T11:05:33.344Z,33.60
2018-04-29T11:08:02.491Z,32.90
2018-04-29T11:10:31.033Z,32.90
2018-04-29T11:13:00.171Z,32.30
2018-04-29T11:15:29.120Z,32.20
2018-04-29T11:17:58.308Z,32.20
2018-04-29T11:20:27.441Z,32.00
2018-04-29T11:22:55.860Z,32.00
2018-04-29T11:25:24.257Z,32.10
2018-04-29T11:27:52.680Z,32.20
2018-04-29T11:30:21.052Z,32.50
2018-04-29T11:32:49.424Z,32.90
2018-04-29T11:35:17.827Z,33.30
2018-04-29T11:37:46.207Z,34.20
2018-04-29T11:40:14.626Z,34.60
2018-04-29T11:42:43.488Z,35.20
2018-04-29T11:45:12.707Z,35.60
2018-04-29T11:47:41.224Z,35.90
2018-04-29T11:50:10.584Z,35.30
2018-04-29T11:52:39.460Z,35.30
2018-04-29T11:55:09.796Z,35.00
2018-04-29T11:57:38.672Z,35.00
2018-04-29T12:00:07.583Z,35.10
2018-04-29T12:02:37.495Z,35.60
2018-04-29T12:05:07.232Z,35.60
2018-04-29T12:07:36.933Z,35.80
2018-04-29T12:10:05.553Z,36.10
2018-04-29T12:12:33.932Z,35.80
2018-04-29T12:15:02.328Z,36.30
2018-04-29T12:17:30.728Z,36.50
2018-04-29T12:19:59.131Z,36.50
2018-04-29T12:22:27.540Z,36.90
2018-04-29T12:24:56.349Z,37.40
2018-04-29T12:27:24.731Z,37.90
2018-04-29T12:29:53.172Z,37.70
2018-04-29T12:32:22.338Z,37.60
2018-04-29T12:34:51.150Z,37.60
2018-04-29T12:37:21.169Z,37.70
2018-04-29T12:39:51.337Z,38.20
2018-04-29T12:42:21.142Z,38.10
2018-04-29T12:44:51.226Z,38.10
2018-04-29T12:47:21.288Z,38.10
2018-04-29T12:49:51.272Z,38.20
2018-04-29T12:52:21.404Z,37.80
2018-04-29T12:54:51.104Z,37.50
2018-04-29T12:57:21.016Z,37.00
2018-04-29T12:59:50.929Z,36.40
2018-04-29T13:02:23.199Z,36.20
2018-04-29T13:04:51.897Z,36.10
2018-04-29T13:07:21.291Z,36.10
2018-04-29T13:09:50.956Z,36.40
2018-04-29T13:12:20.893Z,36.80
2018-04-29T13:14:51.027Z,37.30
2018-04-29T13:17:20.928Z,37.30
2018-04-29T13:19:51.056Z,37.50
2018-04-29T13:22:20.948Z,37.30
2018-04-29T13:24:50.901Z,37.30
2018-04-29T13:27:20.681Z,37.10
2018-04-29T13:29:51.353Z,37.40
2018-04-29T13:32:21.000Z,37.40
2018-04-29T13:34:50.957Z,37.60
2018-04-29T13:37:20.970Z,37.70
2018-04-29T13:39:51.082Z,37.70
2018-04-29T13:42:19.500Z,37.70
2018-04-29T13:44:47.908Z,37.60
2018-04-29T13:47:16.585Z,37.10
2018-04-29T13:49:44.968Z,36.30
2018-04-29T13:52:13.355Z,35.50
2018-04-29T13:54:41.760Z,34.90
2018-04-29T13:57:10.916Z,33.90
2018-04-29T13:59:39.330Z,33.80
2018-04-29T14:02:08.918Z,33.50
2018-04-29T14:04:44.930Z,32.70
2018-04-29T14:07:23.617Z,32.50
2018-04-29T14:09:54.080Z,32.50
2018-04-29T14:12:23.828Z,32.50
2018-04-29T14:14:52.581Z,32.60
2018-04-29T14:17:26.765Z,32.50
2018-04-29T14:20:03.491Z,32.40
2018-04-29T14:22:33.338Z,32.30
2018-04-29T14:25:02.989Z,31.70
2018-04-29T14:27:33.565Z,31.60
2018-04-29T14:30:03.692Z,31.50
2018-04-29T14:32:33.736Z,30.80
2018-04-29T14:35:02.579Z,30.80
2018-04-29T14:37:31.335Z,30.50
2018-04-29T14:40:04.783Z,30.20
2018-04-29T14:42:34.469Z,30.10
2018-04-29T14:45:02.844Z,30.10
2018-04-29T14:47:31.347Z,30.00
2018-04-29T14:50:00.813Z,29.70
2018-04-29T14:52:29.195Z,29.70
2018-04-29T14:54:58.397Z,29.60
2018-04-29T14:57:27.574Z,29.40
2018-04-29T14:59:55.969Z,29.40
2018-04-29T15:02:24.348Z,29.30
2018-04-29T15:04:52.920Z,29.20
2018-04-29T15:07:21.294Z,29.10
2018-04-29T15:09:49.684Z,29.00
2018-04-29T15:12:18.382Z,28.90
2018-04-29T15:14:46.871Z,28.80
2018-04-29T15:17:15.284Z,28.80
2018-04-29T15:19:51.534Z,28.70
2018-04-29T15:22:21.170Z,28.50
2018-04-29T15:24:49.541Z,28.40
2018-04-29T15:27:18.260Z,28.40
2018-04-29T15:29:46.869Z,28.30
2018-04-29T15:32:15.267Z,28.20
2018-04-29T15:34:44.441Z,28.20
2018-04-29T15:37:12.817Z,28.20
2018-04-29T15:39:41.219Z,28.10
2018-04-29T15:42:10.355Z,27.70
2018-04-29T15:44:38.809Z,27.70
2018-04-29T15:47:07.972Z,27.30
2018-04-29T15:49:36.350Z,27.20
2018-04-29T15:52:04.833Z,27.20
2018-04-29T15:54:33.220Z,27.10
2018-04-29T15:57:01.678Z,26.90
2018-04-29T15:59:30.922Z,26.80
2018-04-29T16:02:00.256Z,26.80
2018-04-29T16:04:29.257Z,26.80
2018-04-29T16:06:57.657Z,26.80
2018-04-29T16:09:26.058Z,26.70
2018-04-29T16:11:55.205Z,26.60
2018-04-29T16:14:23.597Z,26.50
2018-04-29T16:16:52.070Z,26.50
2018-04-29T16:19:21.367Z,26.40
2018-04-29T16:21:51.724Z,26.20
2018-04-29T16:24:20.096Z,26.20
2018-04-29T16:26:49.541Z,26.20
2018-04-29T16:29:17.932Z,26.20
2018-04-29T16:31:46.326Z,26.00
2018-04-29T16:34:14.747Z,26.10
2018-04-29T16:36:43.448Z,26.00
2018-04-29T16:39:12.694Z,26.00
2018-04-29T16:41:41.095Z,26.00
2018-04-29T16:44:09.488Z,25.90
2018-04-29T16:46:38.089Z,26.00
2018-04-29T16:49:07.514Z,25.90
2018-04-29T16:51:35.949Z,25.90
2018-04-29T16:54:04.501Z,25.90
2018-04-29T16:56:32.950Z,25.90
2018-04-29T16:59:01.334Z,25.90
2018-04-29T17:01:29.742Z,25.90
2018-04-29T17:03:58.117Z,25.90
2018-04-29T17:06:26.513Z,25.90
2018-04-29T17:08:54.889Z,25.80
2018-04-29T17:11:23.452Z,25.80
2018-04-29T17:13:52.260Z,25.80
2018-04-29T17:16:20.634Z,25.70
2018-04-29T17:18:49.051Z,25.70
2018-04-29T17:21:18.300Z,25.50
2018-04-29T17:23:46.692Z,25.50
2018-04-29T17:26:15.086Z,25.40
2018-04-29T17:28:48.853Z,25.30
2018-04-29T17:31:17.221Z,25.30
2018-04-29T17:33:45.604Z,25.20
2018-04-29T17:36:14.224Z,25.20
2018-04-29T17:38:42.600Z,25.10
2018-04-29T17:41:10.999Z,25.10
2018-04-29T17:43:40.132Z,24.90
2018-04-29T17:46:08.724Z,24.90
2018-04-29T17:48:37.092Z,24.90
2018-04-29T17:51:05.458Z,24.80
2018-04-29T17:53:33.852Z,24.60
2018-04-29T17:56:02.234Z,24.60
2018-04-29T17:58:30.642Z,24.50
2018-04-29T18:00:59.315Z,24.40
2018-04-29T18:03:27.945Z,24.40
2018-04-29T18:05:57.081Z,24.20
2018-04-29T18:08:26.280Z,24.10
2018-04-29T18:10:54.675Z,24.10
2018-04-29T18:13:23.053Z,24.00
2018-04-29T18:15:51.916Z,23.90
2018-04-29T18:18:20.322Z,23.80
2018-04-29T18:20:48.849Z,23.70
2018-04-29T18:23:18.020Z,23.60
2018-04-29T18:25:46.478Z,23.60
2018-04-29T18:28:14.947Z,23.60
2018-04-29T18:30:43.493Z,23.50
2018-04-29T18:33:12.888Z,23.40
2018-04-29T18:35:42.057Z,23.40
2018-04-29T18:38:10.911Z,23.40
2018-04-29T18:40:39.312Z,23.40
2018-04-29T18:43:07.788Z,23.30
2018-04-29T18:45:36.406Z,23.20
2018-04-29T18:48:04.781Z,23.20
2018-04-29T18:50:34.980Z,23.10
2018-04-29T18:53:03.282Z,23.10
2018-04-29T18:55:33.444Z,22.90
2018-04-29T18:58:01.907Z,22.90
2018-04-29T19:00:31.088Z,22.70
2018-04-29T19:03:01.127Z,22.60
2018-04-29T19:05:47.974Z,22.60
2018-04-29T19:08:16.524Z,22.60
2018-04-29T19:10:45.097Z,22.60
2018-04-29T19:13:13.915Z,22.60
2018-04-29T19:15:42.607Z,22.50
2018-04-29T19:18:10.993Z,22.40
2018-04-29T19:20:39.579Z,22.40
2018-04-29T19:23:07.961Z,22.40
2018-04-29T19:25:36.361Z,22.30
2018-04-29T19:28:04.860Z,22.30
2018-04-29T19:30:35.033Z,22.10
2018-04-29T19:33:03.523Z,22.10
2018-04-29T19:35:32.057Z,22.10
2018-04-29T19:38:00.891Z,22.00
2018-04-29T19:40:30.096Z,22.00
2018-04-29T19:42:58.753Z,22.00
2018-04-29T19:45:27.230Z,22.00
2018-04-29T19:47:55.736Z,21.90
2018-04-29T19:50:24.264Z,21.90
2018-04-29T19:52:53.984Z,21.80
2018-04-29T19:55:22.453Z,21.80
2018-04-29T19:57:51.592Z,21.80
2018-04-29T20:00:20.005Z,21.70
2018-04-29T20:02:48.407Z,21.80
2018-04-29T20:05:17.580Z,21.90
2018-04-29T20:07:45.963Z,21.90
2018-04-29T20:10:15.652Z,22.00
2018-04-29T20:12:44.044Z,22.00
2018-04-29T20:15:12.555Z,22.00
2018-04-29T20:17:41.726Z,22.00
2018-04-29T20:20:10.278Z,22.00
2018-04-29T20:22:39.492Z,22.00
2018-04-29T20:25:07.870Z,22.00
2018-04-29T20:27:36.436Z,22.00
2018-04-29T20:30:04.848Z,21.90
2018-04-29T20:32:55.535Z,21.80
2018-04-29T20:35:24.818Z,21.80
2018-04-29T20:37:53.464Z,21.80
2018-04-29T20:40:21.945Z,21.70
2018-04-29T20:42:50.329Z,21.70
2018-04-29T20:45:18.735Z,21.60
2018-04-29T20:47:47.119Z,21.60
2018-04-29T20:50:16.237Z,21.60
2018-04-29T20:52:44.617Z,21.60
2018-04-29T20:55:13.232Z,21.60
2018-04-29T20:57:42.457Z,21.60
2018-04-29T21:00:11.074Z,21.60
2018-04-29T21:02:40.285Z,21.60
2018-04-29T21:05:08.682Z,21.60
2018-04-29T21:07:38.204Z,21.60
2018-04-29T21:10:06.593Z,21.60
2018-04-29T21:12:35.077Z,21.60
2018-04-29T21:15:03.476Z,21.50
2018-04-29T21:17:31.907Z,21.40
2018-04-29T21:20:00.295Z,21.40
2018-04-29T21:22:38.044Z,21.30
2018-04-29T21:25:10.014Z,21.30
2018-04-29T21:27:49.974Z,21.20
2018-04-29T21:30:21.046Z,21.10
2018-04-29T21:32:50.710Z,21.10
2018-04-29T21:35:21.261Z,21.10
2018-04-29T21:37:52.512Z,21.10
2018-04-29T21:40:24.120Z,20.90
2018-04-29T21:42:55.658Z,20.90
2018-04-29T21:45:26.746Z,20.80
2018-04-29T21:47:57.827Z,20.80
2018-04-29T21:50:26.990Z,20.80
2018-04-29T21:52:57.538Z,20.70
2018-04-29T21:55:32.457Z,20.60
2018-04-29T21:58:05.850Z,20.60
2018-04-29T22:00:37.943Z,20.60
2018-04-29T22:03:10.663Z,20.60
2018-04-29T22:05:47.107Z,20.60
2018-04-29T22:08:26.014Z,20.70
2018-04-29T22:10:55.713Z,20.70
2018-04-29T22:13:33.641Z,20.70
2018-04-29T22:16:04.421Z,20.70
2018-04-29T22:18:34.494Z,20.80
2018-04-29T22:21:04.249Z,20.80
2018-04-29T22:23:35.871Z,20.70
2018-04-29T22:26:06.653Z,20.70
2018-04-29T22:28:36.297Z,20.70
2018-04-29T22:31:05.516Z,20.70
2018-04-29T22:33:36.185Z,20.60
2018-04-29T22:36:05.173Z,20.60
2018-04-29T22:38:35.277Z,20.50
2018-04-29T22:41:05.060Z,20.40
2018-04-29T22:43:35.070Z,20.40
2018-04-29T22:46:04.085Z,20.40
2018-04-29T22:48:34.722Z,20.30
2018-04-29T22:51:04.835Z,20.20
2018-04-29T22:53:33.617Z,20.20
2018-04-29T22:56:02.000Z,20.20
2018-04-29T22:58:37.055Z,20.10
2018-04-29T23:01:17.980Z,20.00
2018-04-29T23:03:49.768Z,20.00
2018-04-29T23:06:19.751Z,20.00
2018-04-29T23:08:50.026Z,20.00
2018-04-29T23:11:20.667Z,19.90
2018-04-29T23:13:51.839Z,19.90
2018-04-29T23:16:22.167Z,19.80
2018-04-29T23:18:51.913Z,19.70
2018-04-29T23:21:21.006Z,19.70
2018-04-29T23:23:50.499Z,19.70
2018-04-29T23:26:20.402Z,19.70
2018-04-29T23:28:49.547Z,19.70
2018-04-29T23:31:21.454Z,19.70
2018-04-29T23:33:52.023Z,19.60
2018-04-29T23:36:21.567Z,19.60
2018-04-29T23:38:52.235Z,19.60
2018-04-29T23:41:21.372Z,19.50
2018-04-29T23:43:57.751Z,19.50
2018-04-29T23:46:42.293Z,19.50
2018-04-29T23:49:20.541Z,19.40
2018-04-29T23:52:04.659Z,19.30
2018-04-29T23:54:53.198Z,19.30
2018-04-29T23:57:25.065Z,19.20
2018-04-29T23:59:56.437Z,19.20
